sensor_id;sensor_type;location;lat;lon;timestamp;temperature;humidity
44990;DHT22;30723;51.206;3.326;2023-07-31T00:00:41;17.40;99.90
44990;DHT22;30723;51.206;3.326;2023-07-31T00:03:07;17.30;99.90
44990;DHT22;30723;51.206;3.326;2023-07-31T00:05:33;17.40;99.90
44990;DHT22;30723;51.206;3.326;2023-07-31T00:07:59;17.40;99.90
44990;DHT22;30723;51.206;3.326;2023-07-31T00:10:26;17.30;99.90
44990;DHT22;30723;51.206;3.326;2023-07-31T00:12:52;17.30;99.90
44990;DHT22;30723;51.206;3.326;2023-07-31T00:15:18;17.30;99.90
44990;DHT22;30723;51.206;3.326;2023-07-31T00:17:45;17.30;99.90
44990;DHT22;30723;51.206;3.326;2023-07-31T00:20:12;17.30;99.90
44990;DHT22;30723;51.206;3.326;2023-07-31T00:22:38;17.30;99.90
44990;DHT22;30723;51.206;3.326;2023-07-31T00:25:04;17.30;99.90
44990;DHT22;30723;51.206;3.326;2023-07-31T00:27:32;17.40;99.90
44990;DHT22;30723;51.206;3.326;2023-07-31T00:29:59;17.40;99.90
44990;DHT22;30723;51.206;3.326;2023-07-31T00:32:26;17.40;99.90
44990;DHT22;30723;51.206;3.326;2023-07-31T00:34:53;17.40;99.90
44990;DHT22;30723;51.206;3.326;2023-07-31T00:37:20;17.30;99.90
44990;DHT22;30723;51.206;3.326;2023-07-31T00:39:46;17.30;99.90
44990;DHT22;30723;51.206;3.326;2023-07-31T00:42:12;17.40;99.90
44990;DHT22;30723;51.206;3.326;2023-07-31T00:44:39;17.30;99.90
44990;DHT22;30723;51.206;3.326;2023-07-31T00:47:06;17.30;99.90
44990;DHT22;30723;51.206;3.326;2023-07-31T00:49:33;17.40;99.90
44990;DHT22;30723;51.206;3.326;2023-07-31T00:52:00;17.40;99.90
44990;DHT22;30723;51.206;3.326;2023-07-31T00:54:27;17.30;99.90
44990;DHT22;30723;51.206;3.326;2023-07-31T00:56:55;17.30;99.90
44990;DHT22;30723;51.206;3.326;2023-07-31T00:59:23;17.40;99.90
44990;DHT22;30723;51.206;3.326;2023-07-31T01:01:49;17.40;99.90
44990;DHT22;30723;51.206;3.326;2023-07-31T01:04:16;17.50;99.90
44990;DHT22;30723;51.206;3.326;2023-07-31T01:06:56;17.40;99.90
44990;DHT22;30723;51.206;3.326;2023-07-31T01:12:02;17.20;99.90
44990;DHT22;30723;51.206;3.326;2023-07-31T01:14:29;17.10;99.90
44990;DHT22;30723;51.206;3.326;2023-07-31T01:16:56;17.10;99.90
44990;DHT22;30723;51.206;3.326;2023-07-31T01:19:24;17.00;99.90
44990;DHT22;30723;51.206;3.326;2023-07-31T01:21:58;17.10;99.90
44990;DHT22;30723;51.206;3.326;2023-07-31T01:27:14;17.00;99.90
44990;DHT22;30723;51.206;3.326;2023-07-31T01:30:38;17.00;99.90
44990;DHT22;30723;51.206;3.326;2023-07-31T01:32:58;17.00;99.90
44990;DHT22;30723;51.206;3.326;2023-07-31T01:35:25;17.00;99.90
44990;DHT22;30723;51.206;3.326;2023-07-31T01:37:55;17.10;99.90
44990;DHT22;30723;51.206;3.326;2023-07-31T01:40:21;17.10;99.90
44990;DHT22;30723;51.206;3.326;2023-07-31T01:42:48;17.20;99.90
44990;DHT22;30723;51.206;3.326;2023-07-31T01:45:14;17.30;99.90
44990;DHT22;30723;51.206;3.326;2023-07-31T01:47:41;17.30;99.90
44990;DHT22;30723;51.206;3.326;2023-07-31T01:50:07;17.30;99.90
44990;DHT22;30723;51.206;3.326;2023-07-31T01:52:34;17.40;99.90
44990;DHT22;30723;51.206;3.326;2023-07-31T01:55:02;17.50;99.90
44990;DHT22;30723;51.206;3.326;2023-07-31T01:57:28;17.50;99.90
44990;DHT22;30723;51.206;3.326;2023-07-31T01:59:55;17.50;99.90
44990;DHT22;30723;51.206;3.326;2023-07-31T02:02:22;17.50;99.90
44990;DHT22;30723;51.206;3.326;2023-07-31T02:04:49;17.50;99.90
44990;DHT22;30723;51.206;3.326;2023-07-31T02:07:16;17.60;99.90
44990;DHT22;30723;51.206;3.326;2023-07-31T02:09:43;17.60;99.90
44990;DHT22;30723;51.206;3.326;2023-07-31T02:12:09;17.60;99.90
44990;DHT22;30723;51.206;3.326;2023-07-31T02:14:36;17.60;99.90
44990;DHT22;30723;51.206;3.326;2023-07-31T02:17:03;17.60;99.90
44990;DHT22;30723;51.206;3.326;2023-07-31T02:19:30;17.50;99.90
44990;DHT22;30723;51.206;3.326;2023-07-31T02:21:57;17.50;99.90
44990;DHT22;30723;51.206;3.326;2023-07-31T02:24:24;17.60;99.90
44990;DHT22;30723;51.206;3.326;2023-07-31T02:26:51;17.60;99.90
44990;DHT22;30723;51.206;3.326;2023-07-31T02:29:18;17.60;99.90
44990;DHT22;30723;51.206;3.326;2023-07-31T02:31:45;17.50;99.90
44990;DHT22;30723;51.206;3.326;2023-07-31T02:34:11;17.50;99.90
44990;DHT22;30723;51.206;3.326;2023-07-31T02:36:38;17.50;99.90
44990;DHT22;30723;51.206;3.326;2023-07-31T02:39:05;17.40;99.90
44990;DHT22;30723;51.206;3.326;2023-07-31T02:41:32;17.40;99.90
44990;DHT22;30723;51.206;3.326;2023-07-31T02:43:58;17.40;99.90
44990;DHT22;30723;51.206;3.326;2023-07-31T02:46:24;17.30;99.90
44990;DHT22;30723;51.206;3.326;2023-07-31T02:48:51;17.30;99.90
44990;DHT22;30723;51.206;3.326;2023-07-31T02:51:18;17.40;99.90
44990;DHT22;30723;51.206;3.326;2023-07-31T02:53:44;17.40;99.90
44990;DHT22;30723;51.206;3.326;2023-07-31T02:56:10;17.50;99.90
44990;DHT22;30723;51.206;3.326;2023-07-31T02:58:37;17.50;99.90
44990;DHT22;30723;51.206;3.326;2023-07-31T03:01:03;17.30;99.90
44990;DHT22;30723;51.206;3.326;2023-07-31T03:03:29;17.20;99.90
44990;DHT22;30723;51.206;3.326;2023-07-31T03:05:55;17.10;99.90
44990;DHT22;30723;51.206;3.326;2023-07-31T03:08:22;17.00;99.90
44990;DHT22;30723;51.206;3.326;2023-07-31T03:10:48;17.00;99.90
44990;DHT22;30723;51.206;3.326;2023-07-31T03:13:15;16.90;99.90
44990;DHT22;30723;51.206;3.326;2023-07-31T03:15:44;16.80;99.90
44990;DHT22;30723;51.206;3.326;2023-07-31T03:18:11;16.80;99.90
44990;DHT22;30723;51.206;3.326;2023-07-31T03:20:41;16.70;99.90
44990;DHT22;30723;51.206;3.326;2023-07-31T03:23:08;16.70;99.90
44990;DHT22;30723;51.206;3.326;2023-07-31T03:25:35;16.70;99.90
44990;DHT22;30723;51.206;3.326;2023-07-31T03:28:01;16.70;99.90
44990;DHT22;30723;51.206;3.326;2023-07-31T03:30:27;16.60;99.90
44990;DHT22;30723;51.206;3.326;2023-07-31T03:32:54;16.60;99.90
44990;DHT22;30723;51.206;3.326;2023-07-31T03:35:20;16.60;99.90
44990;DHT22;30723;51.206;3.326;2023-07-31T03:37:46;16.50;99.90
44990;DHT22;30723;51.206;3.326;2023-07-31T03:40:12;16.50;99.90
44990;DHT22;30723;51.206;3.326;2023-07-31T03:42:38;16.50;99.90
44990;DHT22;30723;51.206;3.326;2023-07-31T03:45:04;16.50;99.90
44990;DHT22;30723;51.206;3.326;2023-07-31T03:47:30;16.50;99.90
44990;DHT22;30723;51.206;3.326;2023-07-31T03:49:56;16.50;99.90
44990;DHT22;30723;51.206;3.326;2023-07-31T03:52:22;16.50;99.90
44990;DHT22;30723;51.206;3.326;2023-07-31T03:54:49;16.50;99.90
44990;DHT22;30723;51.206;3.326;2023-07-31T03:57:15;16.60;99.90
44990;DHT22;30723;51.206;3.326;2023-07-31T03:59:43;16.50;99.90
44990;DHT22;30723;51.206;3.326;2023-07-31T04:02:09;16.60;99.90
44990;DHT22;30723;51.206;3.326;2023-07-31T04:04:36;16.60;99.90
44990;DHT22;30723;51.206;3.326;2023-07-31T04:07:03;16.50;99.90
44990;DHT22;30723;51.206;3.326;2023-07-31T04:09:30;16.50;99.90
44990;DHT22;30723;51.206;3.326;2023-07-31T04:11:57;16.60;99.90
44990;DHT22;30723;51.206;3.326;2023-07-31T04:14:24;16.60;99.90
44990;DHT22;30723;51.206;3.326;2023-07-31T04:16:50;16.60;99.90
44990;DHT22;30723;51.206;3.326;2023-07-31T04:19:17;16.70;99.90
44990;DHT22;30723;51.206;3.326;2023-07-31T04:21:43;16.60;99.90
44990;DHT22;30723;51.206;3.326;2023-07-31T04:24:10;16.60;99.90
44990;DHT22;30723;51.206;3.326;2023-07-31T04:26:36;16.70;99.90
44990;DHT22;30723;51.206;3.326;2023-07-31T04:29:03;16.60;99.90
44990;DHT22;30723;51.206;3.326;2023-07-31T04:31:30;16.60;99.90
44990;DHT22;30723;51.206;3.326;2023-07-31T04:33:57;16.70;99.90
44990;DHT22;30723;51.206;3.326;2023-07-31T04:36:24;16.60;99.90
44990;DHT22;30723;51.206;3.326;2023-07-31T04:38:50;16.60;99.90
44990;DHT22;30723;51.206;3.326;2023-07-31T04:41:17;16.70;99.90
44990;DHT22;30723;51.206;3.326;2023-07-31T04:43:43;16.70;99.90
44990;DHT22;30723;51.206;3.326;2023-07-31T04:46:10;16.70;99.90
44990;DHT22;30723;51.206;3.326;2023-07-31T04:48:37;16.70;99.90
44990;DHT22;30723;51.206;3.326;2023-07-31T04:51:04;16.70;99.90
44990;DHT22;30723;51.206;3.326;2023-07-31T04:53:31;16.80;99.90
44990;DHT22;30723;51.206;3.326;2023-07-31T04:55:58;16.80;99.90
44990;DHT22;30723;51.206;3.326;2023-07-31T04:58:24;16.70;99.90
44990;DHT22;30723;51.206;3.326;2023-07-31T05:00:51;16.80;99.90
44990;DHT22;30723;51.206;3.326;2023-07-31T05:03:17;16.80;99.90
44990;DHT22;30723;51.206;3.326;2023-07-31T05:05:43;16.80;99.90
44990;DHT22;30723;51.206;3.326;2023-07-31T05:08:10;16.80;99.90
44990;DHT22;30723;51.206;3.326;2023-07-31T05:10:37;16.80;99.90
44990;DHT22;30723;51.206;3.326;2023-07-31T05:13:03;16.80;99.90
44990;DHT22;30723;51.206;3.326;2023-07-31T05:15:30;16.80;99.90
44990;DHT22;30723;51.206;3.326;2023-07-31T05:17:56;16.90;99.90
44990;DHT22;30723;51.206;3.326;2023-07-31T05:20:23;16.80;99.90
44990;DHT22;30723;51.206;3.326;2023-07-31T05:22:52;16.80;99.90
44990;DHT22;30723;51.206;3.326;2023-07-31T05:25:19;16.80;99.90
44990;DHT22;30723;51.206;3.326;2023-07-31T05:27:46;16.80;99.90
44990;DHT22;30723;51.206;3.326;2023-07-31T05:30:13;16.80;99.90
44990;DHT22;30723;51.206;3.326;2023-07-31T05:32:40;16.80;99.90
44990;DHT22;30723;51.206;3.326;2023-07-31T05:35:07;16.80;99.90
44990;DHT22;30723;51.206;3.326;2023-07-31T05:37:34;16.80;99.90
44990;DHT22;30723;51.206;3.326;2023-07-31T05:40:01;16.80;99.90
44990;DHT22;30723;51.206;3.326;2023-07-31T05:42:28;16.90;99.90
44990;DHT22;30723;51.206;3.326;2023-07-31T05:44:55;16.90;99.90
44990;DHT22;30723;51.206;3.326;2023-07-31T05:47:21;16.90;99.90
44990;DHT22;30723;51.206;3.326;2023-07-31T05:49:49;16.90;99.90
44990;DHT22;30723;51.206;3.326;2023-07-31T05:52:18;16.90;99.90
44990;DHT22;30723;51.206;3.326;2023-07-31T05:54:46;16.90;99.90
44990;DHT22;30723;51.206;3.326;2023-07-31T05:57:13;16.90;99.90
44990;DHT22;30723;51.206;3.326;2023-07-31T05:59:40;17.00;99.90
44990;DHT22;30723;51.206;3.326;2023-07-31T06:02:07;16.90;99.90
44990;DHT22;30723;51.206;3.326;2023-07-31T06:04:34;17.00;99.90
44990;DHT22;30723;51.206;3.326;2023-07-31T06:07:01;17.00;99.90
44990;DHT22;30723;51.206;3.326;2023-07-31T06:09:27;17.00;99.90
44990;DHT22;30723;51.206;3.326;2023-07-31T06:11:53;17.00;99.90
44990;DHT22;30723;51.206;3.326;2023-07-31T06:14:20;17.00;99.90
44990;DHT22;30723;51.206;3.326;2023-07-31T06:16:47;17.00;99.90
44990;DHT22;30723;51.206;3.326;2023-07-31T06:19:13;17.00;99.90
44990;DHT22;30723;51.206;3.326;2023-07-31T06:21:40;17.00;99.90
44990;DHT22;30723;51.206;3.326;2023-07-31T06:24:10;17.00;99.90
44990;DHT22;30723;51.206;3.326;2023-07-31T06:26:38;16.90;99.90
44990;DHT22;30723;51.206;3.326;2023-07-31T06:29:06;17.00;99.90
44990;DHT22;30723;51.206;3.326;2023-07-31T06:31:33;17.00;99.90
44990;DHT22;30723;51.206;3.326;2023-07-31T06:33:59;17.00;99.90
44990;DHT22;30723;51.206;3.326;2023-07-31T06:36:26;17.10;99.90
44990;DHT22;30723;51.206;3.326;2023-07-31T06:38:53;17.00;99.90
44990;DHT22;30723;51.206;3.326;2023-07-31T06:41:20;17.00;99.90
44990;DHT22;30723;51.206;3.326;2023-07-31T06:43:47;17.00;99.90
44990;DHT22;30723;51.206;3.326;2023-07-31T06:46:13;17.00;99.90
44990;DHT22;30723;51.206;3.326;2023-07-31T06:48:41;17.00;99.90
44990;DHT22;30723;51.206;3.326;2023-07-31T06:51:08;17.00;99.90
44990;DHT22;30723;51.206;3.326;2023-07-31T06:53:34;17.00;99.90
44990;DHT22;30723;51.206;3.326;2023-07-31T06:56:01;17.00;99.90
44990;DHT22;30723;51.206;3.326;2023-07-31T06:58:28;17.10;99.90
44990;DHT22;30723;51.206;3.326;2023-07-31T07:00:55;17.00;99.90
44990;DHT22;30723;51.206;3.326;2023-07-31T07:03:21;17.00;99.90
44990;DHT22;30723;51.206;3.326;2023-07-31T07:05:48;17.00;99.90
44990;DHT22;30723;51.206;3.326;2023-07-31T07:08:15;17.00;99.90
44990;DHT22;30723;51.206;3.326;2023-07-31T07:10:43;17.00;99.90
44990;DHT22;30723;51.206;3.326;2023-07-31T07:13:09;17.10;99.90
44990;DHT22;30723;51.206;3.326;2023-07-31T07:15:35;17.10;99.90
44990;DHT22;30723;51.206;3.326;2023-07-31T07:18:02;17.20;99.90
44990;DHT22;30723;51.206;3.326;2023-07-31T07:20:30;17.20;99.90
44990;DHT22;30723;51.206;3.326;2023-07-31T07:22:57;17.20;99.90
44990;DHT22;30723;51.206;3.326;2023-07-31T07:25:23;17.30;99.90
44990;DHT22;30723;51.206;3.326;2023-07-31T07:27:50;17.40;99.90
44990;DHT22;30723;51.206;3.326;2023-07-31T07:30:18;17.40;99.90
44990;DHT22;30723;51.206;3.326;2023-07-31T07:32:46;17.30;99.90
44990;DHT22;30723;51.206;3.326;2023-07-31T07:35:13;17.30;99.90
44990;DHT22;30723;51.206;3.326;2023-07-31T07:37:40;17.30;99.90
44990;DHT22;30723;51.206;3.326;2023-07-31T07:40:06;17.30;99.90
44990;DHT22;30723;51.206;3.326;2023-07-31T07:42:33;17.40;99.90
44990;DHT22;30723;51.206;3.326;2023-07-31T07:45:00;17.30;99.90
44990;DHT22;30723;51.206;3.326;2023-07-31T07:47:27;17.30;99.90
44990;DHT22;30723;51.206;3.326;2023-07-31T07:49:53;17.20;99.90
44990;DHT22;30723;51.206;3.326;2023-07-31T07:52:20;17.20;99.90
44990;DHT22;30723;51.206;3.326;2023-07-31T07:54:47;17.20;99.90
44990;DHT22;30723;51.206;3.326;2023-07-31T07:57:12;17.40;99.90
44990;DHT22;30723;51.206;3.326;2023-07-31T07:59:38;17.50;99.90
44990;DHT22;30723;51.206;3.326;2023-07-31T08:02:04;17.60;99.90
44990;DHT22;30723;51.206;3.326;2023-07-31T08:04:31;17.70;99.90
44990;DHT22;30723;51.206;3.326;2023-07-31T08:06:58;17.70;99.90
44990;DHT22;30723;51.206;3.326;2023-07-31T08:09:25;17.70;99.90
44990;DHT22;30723;51.206;3.326;2023-07-31T08:11:52;17.70;99.90
44990;DHT22;30723;51.206;3.326;2023-07-31T08:14:19;17.70;99.90
44990;DHT22;30723;51.206;3.326;2023-07-31T08:16:46;17.70;99.90
44990;DHT22;30723;51.206;3.326;2023-07-31T08:19:11;17.70;99.90
44990;DHT22;30723;51.206;3.326;2023-07-31T08:21:38;17.80;99.90
44990;DHT22;30723;51.206;3.326;2023-07-31T08:24:04;17.80;99.90
44990;DHT22;30723;51.206;3.326;2023-07-31T08:26:31;17.90;99.90
44990;DHT22;30723;51.206;3.326;2023-07-31T08:28:58;17.90;99.90
44990;DHT22;30723;51.206;3.326;2023-07-31T08:31:24;17.80;99.90
44990;DHT22;30723;51.206;3.326;2023-07-31T08:33:50;17.90;99.90
44990;DHT22;30723;51.206;3.326;2023-07-31T08:36:16;17.90;99.90
44990;DHT22;30723;51.206;3.326;2023-07-31T08:38:42;18.00;99.90
44990;DHT22;30723;51.206;3.326;2023-07-31T08:41:08;18.00;99.90
44990;DHT22;30723;51.206;3.326;2023-07-31T08:43:35;18.00;99.90
44990;DHT22;30723;51.206;3.326;2023-07-31T08:46:03;18.00;99.90
44990;DHT22;30723;51.206;3.326;2023-07-31T08:48:30;18.10;99.90
44990;DHT22;30723;51.206;3.326;2023-07-31T08:50:56;18.10;99.90
44990;DHT22;30723;51.206;3.326;2023-07-31T08:53:22;18.20;99.90
44990;DHT22;30723;51.206;3.326;2023-07-31T08:55:50;18.20;99.90
44990;DHT22;30723;51.206;3.326;2023-07-31T08:58:19;18.30;99.90
44990;DHT22;30723;51.206;3.326;2023-07-31T09:00:47;18.30;99.90
44990;DHT22;30723;51.206;3.326;2023-07-31T09:03:15;18.30;99.90
44990;DHT22;30723;51.206;3.326;2023-07-31T09:05:46;18.40;99.90
44990;DHT22;30723;51.206;3.326;2023-07-31T09:08:18;18.40;99.90
44990;DHT22;30723;51.206;3.326;2023-07-31T09:10:45;18.50;99.90
44990;DHT22;30723;51.206;3.326;2023-07-31T09:13:12;18.50;99.90
44990;DHT22;30723;51.206;3.326;2023-07-31T09:15:39;18.60;99.90
44990;DHT22;30723;51.206;3.326;2023-07-31T09:18:07;18.60;99.90
44990;DHT22;30723;51.206;3.326;2023-07-31T09:20:34;18.70;99.90
44990;DHT22;30723;51.206;3.326;2023-07-31T09:23:12;18.80;99.90
44990;DHT22;30723;51.206;3.326;2023-07-31T09:25:38;18.70;99.90
44990;DHT22;30723;51.206;3.326;2023-07-31T09:28:07;18.80;99.90
44990;DHT22;30723;51.206;3.326;2023-07-31T09:30:49;18.80;99.90
44990;DHT22;30723;51.206;3.326;2023-07-31T09:33:17;18.70;99.90
44990;DHT22;30723;51.206;3.326;2023-07-31T09:35:44;18.70;99.90
44990;DHT22;30723;51.206;3.326;2023-07-31T09:38:12;18.60;99.90
44990;DHT22;30723;51.206;3.326;2023-07-31T09:40:43;18.60;99.90
44990;DHT22;30723;51.206;3.326;2023-07-31T09:43:12;18.60;99.90
44990;DHT22;30723;51.206;3.326;2023-07-31T09:45:40;18.60;99.90
44990;DHT22;30723;51.206;3.326;2023-07-31T09:48:11;18.50;99.90
44990;DHT22;30723;51.206;3.326;2023-07-31T09:50:41;18.50;99.90
44990;DHT22;30723;51.206;3.326;2023-07-31T09:53:08;18.40;99.90
44990;DHT22;30723;51.206;3.326;2023-07-31T09:55:34;18.60;99.90
44990;DHT22;30723;51.206;3.326;2023-07-31T09:58:07;18.70;99.90
44990;DHT22;30723;51.206;3.326;2023-07-31T10:00:34;18.70;99.90
44990;DHT22;30723;51.206;3.326;2023-07-31T10:03:03;18.80;99.90
44990;DHT22;30723;51.206;3.326;2023-07-31T10:08:03;18.80;99.90
44990;DHT22;30723;51.206;3.326;2023-07-31T10:10:30;18.80;99.90
44990;DHT22;30723;51.206;3.326;2023-07-31T10:12:58;18.80;99.90
44990;DHT22;30723;51.206;3.326;2023-07-31T10:15:25;18.70;99.90
44990;DHT22;30723;51.206;3.326;2023-07-31T10:17:52;18.80;99.90
44990;DHT22;30723;51.206;3.326;2023-07-31T10:20:20;18.80;99.90
44990;DHT22;30723;51.206;3.326;2023-07-31T10:22:47;18.80;99.90
44990;DHT22;30723;51.206;3.326;2023-07-31T10:25:16;18.80;99.90
44990;DHT22;30723;51.206;3.326;2023-07-31T10:27:43;18.80;99.90
44990;DHT22;30723;51.206;3.326;2023-07-31T10:30:14;18.80;99.90
44990;DHT22;30723;51.206;3.326;2023-07-31T10:32:42;18.90;99.90
44990;DHT22;30723;51.206;3.326;2023-07-31T10:35:10;18.80;99.90
44990;DHT22;30723;51.206;3.326;2023-07-31T10:37:41;18.80;99.90
44990;DHT22;30723;51.206;3.326;2023-07-31T10:40:24;18.80;99.90
44990;DHT22;30723;51.206;3.326;2023-07-31T10:42:57;18.90;99.90
44990;DHT22;30723;51.206;3.326;2023-07-31T10:50:32;19.00;99.90
44990;DHT22;30723;51.206;3.326;2023-07-31T10:52:59;19.00;99.90
44990;DHT22;30723;51.206;3.326;2023-07-31T10:55:41;19.10;99.90
44990;DHT22;30723;51.206;3.326;2023-07-31T10:58:13;19.20;99.90
44990;DHT22;30723;51.206;3.326;2023-07-31T11:00:43;19.10;99.90
44990;DHT22;30723;51.206;3.326;2023-07-31T11:03:12;19.10;99.90
44990;DHT22;30723;51.206;3.326;2023-07-31T11:06:00;19.20;99.90
44990;DHT22;30723;51.206;3.326;2023-07-31T11:08:34;19.20;99.90
44990;DHT22;30723;51.206;3.326;2023-07-31T11:16:10;19.30;99.90
44990;DHT22;30723;51.206;3.326;2023-07-31T11:18:41;19.30;99.90
44990;DHT22;30723;51.206;3.326;2023-07-31T11:21:17;19.20;99.90
44990;DHT22;30723;51.206;3.326;2023-07-31T11:23:48;19.20;99.90
44990;DHT22;30723;51.206;3.326;2023-07-31T11:26:14;19.10;99.90
44990;DHT22;30723;51.206;3.326;2023-07-31T11:28:40;19.20;99.90
44990;DHT22;30723;51.206;3.326;2023-07-31T11:31:10;19.20;99.90
44990;DHT22;30723;51.206;3.326;2023-07-31T11:33:36;19.30;99.90
44990;DHT22;30723;51.206;3.326;2023-07-31T11:36:02;19.30;99.90
44990;DHT22;30723;51.206;3.326;2023-07-31T11:38:33;19.20;99.90
44990;DHT22;30723;51.206;3.326;2023-07-31T11:41:01;19.30;99.90
44990;DHT22;30723;51.206;3.326;2023-07-31T11:43:32;19.20;99.90
44990;DHT22;30723;51.206;3.326;2023-07-31T11:46:00;19.30;99.90
44990;DHT22;30723;51.206;3.326;2023-07-31T11:48:30;19.40;99.90
44990;DHT22;30723;51.206;3.326;2023-07-31T11:51:02;19.50;99.90
44990;DHT22;30723;51.206;3.326;2023-07-31T11:53:51;19.50;99.90
44990;DHT22;30723;51.206;3.326;2023-07-31T11:56:18;19.40;99.90
44990;DHT22;30723;51.206;3.326;2023-07-31T11:59:03;19.40;99.90
44990;DHT22;30723;51.206;3.326;2023-07-31T12:01:30;19.20;99.90
44990;DHT22;30723;51.206;3.326;2023-07-31T12:03:57;19.20;99.90
44990;DHT22;30723;51.206;3.326;2023-07-31T12:06:35;19.10;99.90
44990;DHT22;30723;51.206;3.326;2023-07-31T12:09:09;19.10;99.90
44990;DHT22;30723;51.206;3.326;2023-07-31T12:11:46;19.10;99.90
44990;DHT22;30723;51.206;3.326;2023-07-31T12:14:27;19.10;99.90
44990;DHT22;30723;51.206;3.326;2023-07-31T12:16:59;19.10;99.90
44990;DHT22;30723;51.206;3.326;2023-07-31T12:19:26;19.00;99.90
44990;DHT22;30723;51.206;3.326;2023-07-31T12:21:56;19.10;99.90
44990;DHT22;30723;51.206;3.326;2023-07-31T12:24:22;19.20;99.90
44990;DHT22;30723;51.206;3.326;2023-07-31T12:26:48;19.10;99.90
44990;DHT22;30723;51.206;3.326;2023-07-31T12:29:15;19.20;99.90
44990;DHT22;30723;51.206;3.326;2023-07-31T12:31:43;19.10;99.90
44990;DHT22;30723;51.206;3.326;2023-07-31T12:34:17;19.20;99.90
44990;DHT22;30723;51.206;3.326;2023-07-31T12:36:44;19.10;99.90
44990;DHT22;30723;51.206;3.326;2023-07-31T12:39:10;19.10;99.90
44990;DHT22;30723;51.206;3.326;2023-07-31T12:41:36;19.20;99.90
44990;DHT22;30723;51.206;3.326;2023-07-31T12:44:03;19.30;99.90
44990;DHT22;30723;51.206;3.326;2023-07-31T12:46:30;19.30;99.90
44990;DHT22;30723;51.206;3.326;2023-07-31T12:48:57;19.30;99.90
44990;DHT22;30723;51.206;3.326;2023-07-31T12:51:22;19.30;99.90
44990;DHT22;30723;51.206;3.326;2023-07-31T12:53:49;19.20;99.90
44990;DHT22;30723;51.206;3.326;2023-07-31T12:56:16;19.20;99.90
44990;DHT22;30723;51.206;3.326;2023-07-31T12:58:44;19.20;99.90
44990;DHT22;30723;51.206;3.326;2023-07-31T13:01:10;19.10;99.90
44990;DHT22;30723;51.206;3.326;2023-07-31T13:03:36;19.10;99.90
44990;DHT22;30723;51.206;3.326;2023-07-31T13:06:02;19.10;99.90
44990;DHT22;30723;51.206;3.326;2023-07-31T13:08:29;19.00;99.90
44990;DHT22;30723;51.206;3.326;2023-07-31T13:10:55;18.90;99.90
44990;DHT22;30723;51.206;3.326;2023-07-31T13:13:21;18.80;99.90
44990;DHT22;30723;51.206;3.326;2023-07-31T13:15:47;18.90;99.90
44990;DHT22;30723;51.206;3.326;2023-07-31T13:18:14;18.90;99.90
44990;DHT22;30723;51.206;3.326;2023-07-31T13:20:41;18.80;99.90
44990;DHT22;30723;51.206;3.326;2023-07-31T13:23:08;18.80;99.90
44990;DHT22;30723;51.206;3.326;2023-07-31T13:25:33;18.80;99.90
44990;DHT22;30723;51.206;3.326;2023-07-31T13:28:00;18.70;99.90
44990;DHT22;30723;51.206;3.326;2023-07-31T13:30:27;18.80;99.90
44990;DHT22;30723;51.206;3.326;2023-07-31T13:32:54;18.80;99.90
44990;DHT22;30723;51.206;3.326;2023-07-31T13:35:20;18.80;99.90
44990;DHT22;30723;51.206;3.326;2023-07-31T13:37:45;18.80;99.90
44990;DHT22;30723;51.206;3.326;2023-07-31T13:40:11;18.80;99.90
44990;DHT22;30723;51.206;3.326;2023-07-31T13:42:37;18.90;99.90
44990;DHT22;30723;51.206;3.326;2023-07-31T13:45:05;18.90;99.90
44990;DHT22;30723;51.206;3.326;2023-07-31T13:47:31;19.00;99.90
44990;DHT22;30723;51.206;3.326;2023-07-31T13:49:57;19.00;99.90
44990;DHT22;30723;51.206;3.326;2023-07-31T13:52:24;19.00;99.90
44990;DHT22;30723;51.206;3.326;2023-07-31T13:54:49;18.90;99.90
44990;DHT22;30723;51.206;3.326;2023-07-31T13:57:17;18.90;99.90
44990;DHT22;30723;51.206;3.326;2023-07-31T13:59:43;18.90;99.90
44990;DHT22;30723;51.206;3.326;2023-07-31T14:02:10;18.90;99.90
44990;DHT22;30723;51.206;3.326;2023-07-31T14:04:37;18.90;99.90
44990;DHT22;30723;51.206;3.326;2023-07-31T14:07:04;19.00;99.90
44990;DHT22;30723;51.206;3.326;2023-07-31T14:09:30;18.90;99.90
44990;DHT22;30723;51.206;3.326;2023-07-31T14:11:58;18.90;99.90
44990;DHT22;30723;51.206;3.326;2023-07-31T14:14:23;18.90;99.90
44990;DHT22;30723;51.206;3.326;2023-07-31T14:16:49;18.80;99.90
44990;DHT22;30723;51.206;3.326;2023-07-31T14:19:15;18.70;99.90
44990;DHT22;30723;51.206;3.326;2023-07-31T14:21:41;18.70;99.90
44990;DHT22;30723;51.206;3.326;2023-07-31T14:24:08;18.70;99.90
44990;DHT22;30723;51.206;3.326;2023-07-31T14:26:35;18.70;99.90
44990;DHT22;30723;51.206;3.326;2023-07-31T14:29:02;18.70;99.90
44990;DHT22;30723;51.206;3.326;2023-07-31T14:31:29;18.70;99.90
44990;DHT22;30723;51.206;3.326;2023-07-31T14:33:56;18.70;99.90
44990;DHT22;30723;51.206;3.326;2023-07-31T14:36:23;18.70;99.90
44990;DHT22;30723;51.206;3.326;2023-07-31T14:38:49;18.70;99.90
44990;DHT22;30723;51.206;3.326;2023-07-31T14:41:16;18.80;99.90
44990;DHT22;30723;51.206;3.326;2023-07-31T14:43:43;18.90;99.90
44990;DHT22;30723;51.206;3.326;2023-07-31T14:46:08;18.80;99.90
44990;DHT22;30723;51.206;3.326;2023-07-31T14:48:34;18.80;99.90
44990;DHT22;30723;51.206;3.326;2023-07-31T14:51:00;18.80;99.90
44990;DHT22;30723;51.206;3.326;2023-07-31T14:53:27;18.80;99.90
44990;DHT22;30723;51.206;3.326;2023-07-31T14:55:53;18.90;99.90
44990;DHT22;30723;51.206;3.326;2023-07-31T14:58:20;18.80;99.90
44990;DHT22;30723;51.206;3.326;2023-07-31T15:00:47;18.80;99.90
44990;DHT22;30723;51.206;3.326;2023-07-31T15:03:13;18.80;99.90
44990;DHT22;30723;51.206;3.326;2023-07-31T15:05:39;18.80;99.90
44990;DHT22;30723;51.206;3.326;2023-07-31T15:08:14;18.80;99.90
44990;DHT22;30723;51.206;3.326;2023-07-31T15:10:41;18.80;99.90
44990;DHT22;30723;51.206;3.326;2023-07-31T15:13:07;18.80;99.90
44990;DHT22;30723;51.206;3.326;2023-07-31T15:15:34;18.80;99.90
44990;DHT22;30723;51.206;3.326;2023-07-31T15:18:01;18.70;99.90
44990;DHT22;30723;51.206;3.326;2023-07-31T15:20:28;18.80;99.90
44990;DHT22;30723;51.206;3.326;2023-07-31T15:22:54;18.80;99.90
44990;DHT22;30723;51.206;3.326;2023-07-31T15:25:20;18.80;99.90
44990;DHT22;30723;51.206;3.326;2023-07-31T15:27:46;18.80;99.90
44990;DHT22;30723;51.206;3.326;2023-07-31T15:30:13;18.80;99.90
44990;DHT22;30723;51.206;3.326;2023-07-31T15:32:39;18.80;99.90
44990;DHT22;30723;51.206;3.326;2023-07-31T15:35:06;18.80;99.90
44990;DHT22;30723;51.206;3.326;2023-07-31T15:37:32;18.80;99.90
44990;DHT22;30723;51.206;3.326;2023-07-31T15:39:59;18.90;99.90
44990;DHT22;30723;51.206;3.326;2023-07-31T15:42:25;19.00;99.90
44990;DHT22;30723;51.206;3.326;2023-07-31T15:44:52;18.90;99.90
44990;DHT22;30723;51.206;3.326;2023-07-31T15:47:19;18.90;99.90
44990;DHT22;30723;51.206;3.326;2023-07-31T15:49:46;18.90;99.90